sensor_id;sensor_type;location;lat;lon;timestamp;temperature;humidity
20831;DHT22;10576;53.556;9.868;2024-02-16T00:00:23;11.70;99.90
20831;DHT22;10576;53.556;9.868;2024-02-16T00:02:49;11.60;99.90
20831;DHT22;10576;53.556;9.868;2024-02-16T00:05:15;11.60;99.90
20831;DHT22;10576;53.556;9.868;2024-02-16T00:07:40;11.60;99.90
20831;DHT22;10576;53.556;9.868;2024-02-16T00:10:06;11.60;99.90
20831;DHT22;10576;53.556;9.868;2024-02-16T00:12:32;11.60;99.90
20831;DHT22;10576;53.556;9.868;2024-02-16T00:14:58;11.60;99.90
20831;DHT22;10576;53.556;9.868;2024-02-16T00:17:24;11.60;99.90
20831;DHT22;10576;53.556;9.868;2024-02-16T00:19:55;11.50;99.90
20831;DHT22;10576;53.556;9.868;2024-02-16T00:22:21;11.50;99.90
20831;DHT22;10576;53.556;9.868;2024-02-16T00:24:46;11.50;99.90
20831;DHT22;10576;53.556;9.868;2024-02-16T00:27:13;11.50;99.90
20831;DHT22;10576;53.556;9.868;2024-02-16T00:29:39;11.50;99.90
20831;DHT22;10576;53.556;9.868;2024-02-16T00:32:05;11.40;99.90
20831;DHT22;10576;53.556;9.868;2024-02-16T00:34:34;11.50;99.90
20831;DHT22;10576;53.556;9.868;2024-02-16T00:37:00;11.40;99.90
20831;DHT22;10576;53.556;9.868;2024-02-16T00:39:25;11.40;99.90
20831;DHT22;10576;53.556;9.868;2024-02-16T00:41:51;11.60;99.90
20831;DHT22;10576;53.556;9.868;2024-02-16T00:44:17;11.60;99.90
20831;DHT22;10576;53.556;9.868;2024-02-16T00:46:45;11.50;99.90
20831;DHT22;10576;53.556;9.868;2024-02-16T00:49:11;11.50;99.90
20831;DHT22;10576;53.556;9.868;2024-02-16T00:51:37;11.50;99.90
20831;DHT22;10576;53.556;9.868;2024-02-16T00:54:02;11.40;99.90
20831;DHT22;10576;53.556;9.868;2024-02-16T00:56:29;11.40;99.90
20831;DHT22;10576;53.556;9.868;2024-02-16T00:58:54;11.40;99.90
20831;DHT22;10576;53.556;9.868;2024-02-16T01:01:20;11.40;99.90
20831;DHT22;10576;53.556;9.868;2024-02-16T01:03:48;11.40;99.90
20831;DHT22;10576;53.556;9.868;2024-02-16T01:06:13;11.40;99.90
20831;DHT22;10576;53.556;9.868;2024-02-16T01:08:39;11.30;99.90
20831;DHT22;10576;53.556;9.868;2024-02-16T01:11:05;11.30;99.90
20831;DHT22;10576;53.556;9.868;2024-02-16T01:13:30;11.30;99.90
20831;DHT22;10576;53.556;9.868;2024-02-16T01:15:56;11.20;99.90
20831;DHT22;10576;53.556;9.868;2024-02-16T01:18:22;11.20;99.90
20831;DHT22;10576;53.556;9.868;2024-02-16T01:20:48;11.20;99.90
20831;DHT22;10576;53.556;9.868;2024-02-16T01:23:13;11.10;99.90
20831;DHT22;10576;53.556;9.868;2024-02-16T01:25:38;11.10;99.90
20831;DHT22;10576;53.556;9.868;2024-02-16T01:28:04;11.00;99.90
20831;DHT22;10576;53.556;9.868;2024-02-16T01:30:29;13.60;99.90
20831;DHT22;10576;53.556;9.868;2024-02-16T01:32:55;11.00;99.90
20831;DHT22;10576;53.556;9.868;2024-02-16T01:35:20;11.00;99.90
20831;DHT22;10576;53.556;9.868;2024-02-16T01:37:46;11.10;99.90
20831;DHT22;10576;53.556;9.868;2024-02-16T01:40:12;11.00;99.90
20831;DHT22;10576;53.556;9.868;2024-02-16T01:42:40;11.00;99.90
20831;DHT22;10576;53.556;9.868;2024-02-16T01:45:06;11.00;99.90
20831;DHT22;10576;53.556;9.868;2024-02-16T01:47:31;11.00;99.90
20831;DHT22;10576;53.556;9.868;2024-02-16T01:49:57;11.00;99.90
20831;DHT22;10576;53.556;9.868;2024-02-16T01:52:24;11.00;99.90
20831;DHT22;10576;53.556;9.868;2024-02-16T01:54:49;11.00;99.90
20831;DHT22;10576;53.556;9.868;2024-02-16T01:57:15;11.00;99.90
20831;DHT22;10576;53.556;9.868;2024-02-16T01:59:40;11.00;99.90
20831;DHT22;10576;53.556;9.868;2024-02-16T02:02:06;11.10;99.90
20831;DHT22;10576;53.556;9.868;2024-02-16T02:04:32;11.00;99.90
20831;DHT22;10576;53.556;9.868;2024-02-16T02:06:58;11.00;99.90
20831;DHT22;10576;53.556;9.868;2024-02-16T02:09:24;11.00;99.90
20831;DHT22;10576;53.556;9.868;2024-02-16T02:11:49;11.10;99.90
20831;DHT22;10576;53.556;9.868;2024-02-16T02:14:15;11.00;99.90
20831;DHT22;10576;53.556;9.868;2024-02-16T02:16:40;11.00;99.90
20831;DHT22;10576;53.556;9.868;2024-02-16T02:19:06;11.00;99.90
20831;DHT22;10576;53.556;9.868;2024-02-16T02:21:31;11.10;99.90
20831;DHT22;10576;53.556;9.868;2024-02-16T02:23:57;11.00;99.90
20831;DHT22;10576;53.556;9.868;2024-02-16T02:26:22;11.00;99.90
20831;DHT22;10576;53.556;9.868;2024-02-16T02:28:48;11.00;99.90
20831;DHT22;10576;53.556;9.868;2024-02-16T02:31:13;11.00;99.90
20831;DHT22;10576;53.556;9.868;2024-02-16T02:33:39;11.00;99.90
20831;DHT22;10576;53.556;9.868;2024-02-16T02:36:07;11.00;99.90
20831;DHT22;10576;53.556;9.868;2024-02-16T02:38:33;11.00;99.90
20831;DHT22;10576;53.556;9.868;2024-02-16T02:40:58;10.90;99.90
20831;DHT22;10576;53.556;9.868;2024-02-16T02:43:24;11.00;99.90
20831;DHT22;10576;53.556;9.868;2024-02-16T02:45:50;10.90;99.90
20831;DHT22;10576;53.556;9.868;2024-02-16T02:48:15;10.90;99.90
20831;DHT22;10576;53.556;9.868;2024-02-16T02:50:41;10.90;99.90
20831;DHT22;10576;53.556;9.868;2024-02-16T02:53:06;10.90;99.90
20831;DHT22;10576;53.556;9.868;2024-02-16T02:55:32;10.90;99.90
20831;DHT22;10576;53.556;9.868;2024-02-16T02:57:57;10.90;99.90
20831;DHT22;10576;53.556;9.868;2024-02-16T03:00:23;10.90;99.90
20831;DHT22;10576;53.556;9.868;2024-02-16T03:02:49;10.90;99.90
20831;DHT22;10576;53.556;9.868;2024-02-16T03:05:14;11.00;99.90
20831;DHT22;10576;53.556;9.868;2024-02-16T03:07:40;9.60;99.90
20831;DHT22;10576;53.556;9.868;2024-02-16T03:10:06;11.00;99.90
20831;DHT22;10576;53.556;9.868;2024-02-16T03:12:34;11.00;99.90
20831;DHT22;10576;53.556;9.868;2024-02-16T03:15:00;10.90;99.90
20831;DHT22;10576;53.556;9.868;2024-02-16T03:17:25;11.00;99.90
20831;DHT22;10576;53.556;9.868;2024-02-16T03:19:51;11.00;99.90
20831;DHT22;10576;53.556;9.868;2024-02-16T03:22:17;11.00;99.90
20831;DHT22;10576;53.556;9.868;2024-02-16T03:24:42;11.00;99.90
20831;DHT22;10576;53.556;9.868;2024-02-16T03:27:11;11.00;99.90
20831;DHT22;10576;53.556;9.868;2024-02-16T03:29:37;11.00;99.90
20831;DHT22;10576;53.556;9.868;2024-02-16T03:32:03;10.90;99.90
20831;DHT22;10576;53.556;9.868;2024-02-16T03:34:28;10.90;99.90
20831;DHT22;10576;53.556;9.868;2024-02-16T03:36:55;11.00;99.90
20831;DHT22;10576;53.556;9.868;2024-02-16T03:39:20;11.00;99.90
20831;DHT22;10576;53.556;9.868;2024-02-16T03:41:46;11.00;99.90
20831;DHT22;10576;53.556;9.868;2024-02-16T03:44:15;11.00;99.90
20831;DHT22;10576;53.556;9.868;2024-02-16T03:46:41;11.00;99.90
20831;DHT22;10576;53.556;9.868;2024-02-16T03:49:07;11.00;99.90
20831;DHT22;10576;53.556;9.868;2024-02-16T03:51:33;11.10;99.90
20831;DHT22;10576;53.556;9.868;2024-02-16T03:53:58;11.00;99.90
20831;DHT22;10576;53.556;9.868;2024-02-16T03:56:24;11.00;99.90
20831;DHT22;10576;53.556;9.868;2024-02-16T03:58:50;11.10;99.90
20831;DHT22;10576;53.556;9.868;2024-02-16T04:01:15;11.10;99.90
20831;DHT22;10576;53.556;9.868;2024-02-16T04:03:41;11.10;99.90
20831;DHT22;10576;53.556;9.868;2024-02-16T04:06:07;11.10;99.90
20831;DHT22;10576;53.556;9.868;2024-02-16T04:08:32;11.10;99.90
20831;DHT22;10576;53.556;9.868;2024-02-16T04:10:58;11.10;99.90
20831;DHT22;10576;53.556;9.868;2024-02-16T04:13:23;11.10;99.90
20831;DHT22;10576;53.556;9.868;2024-02-16T04:15:49;11.10;99.90
20831;DHT22;10576;53.556;9.868;2024-02-16T04:18:14;11.10;99.90
20831;DHT22;10576;53.556;9.868;2024-02-16T04:20:40;11.10;99.90
20831;DHT22;10576;53.556;9.868;2024-02-16T04:23:06;11.00;99.90
20831;DHT22;10576;53.556;9.868;2024-02-16T04:25:32;11.00;99.90
20831;DHT22;10576;53.556;9.868;2024-02-16T04:27:57;11.00;99.90
20831;DHT22;10576;53.556;9.868;2024-02-16T04:30:23;11.00;99.90
20831;DHT22;10576;53.556;9.868;2024-02-16T04:32:48;11.00;99.90
20831;DHT22;10576;53.556;9.868;2024-02-16T04:35:13;11.00;99.90
20831;DHT22;10576;53.556;9.868;2024-02-16T04:37:40;11.00;99.90
20831;DHT22;10576;53.556;9.868;2024-02-16T04:40:05;11.00;99.90
20831;DHT22;10576;53.556;9.868;2024-02-16T04:42:31;11.00;99.90
20831;DHT22;10576;53.556;9.868;2024-02-16T04:44:57;11.00;99.90
20831;DHT22;10576;53.556;9.868;2024-02-16T04:47:22;10.90;99.90
20831;DHT22;10576;53.556;9.868;2024-02-16T04:49:50;11.00;99.90
20831;DHT22;10576;53.556;9.868;2024-02-16T04:52:15;11.00;99.90
20831;DHT22;10576;53.556;9.868;2024-02-16T04:54:41;11.00;99.90
20831;DHT22;10576;53.556;9.868;2024-02-16T04:57:06;10.90;99.90
20831;DHT22;10576;53.556;9.868;2024-02-16T04:59:32;10.90;99.90
20831;DHT22;10576;53.556;9.868;2024-02-16T05:01:58;10.90;99.90
20831;DHT22;10576;53.556;9.868;2024-02-16T05:04:23;10.90;99.90
20831;DHT22;10576;53.556;9.868;2024-02-16T05:06:49;10.90;99.90
20831;DHT22;10576;53.556;9.868;2024-02-16T05:09:17;10.80;99.90
20831;DHT22;10576;53.556;9.868;2024-02-16T05:11:42;10.80;99.90
20831;DHT22;10576;53.556;9.868;2024-02-16T05:14:08;10.80;99.90
20831;DHT22;10576;53.556;9.868;2024-02-16T05:16:33;10.80;99.90
20831;DHT22;10576;53.556;9.868;2024-02-16T05:18:59;10.80;99.90
20831;DHT22;10576;53.556;9.868;2024-02-16T05:21:24;10.90;99.90
20831;DHT22;10576;53.556;9.868;2024-02-16T05:23:50;10.90;99.90
20831;DHT22;10576;53.556;9.868;2024-02-16T05:26:15;10.90;99.90
20831;DHT22;10576;53.556;9.868;2024-02-16T05:28:41;10.80;99.90
20831;DHT22;10576;53.556;9.868;2024-02-16T05:31:13;10.80;99.90
20831;DHT22;10576;53.556;9.868;2024-02-16T05:33:40;10.70;99.90
20831;DHT22;10576;53.556;9.868;2024-02-16T05:36:06;10.70;99.90
20831;DHT22;10576;53.556;9.868;2024-02-16T05:38:32;10.70;99.90
20831;DHT22;10576;53.556;9.868;2024-02-16T05:41:00;10.70;99.90
20831;DHT22;10576;53.556;9.868;2024-02-16T05:43:25;10.70;99.90
20831;DHT22;10576;53.556;9.868;2024-02-16T05:45:51;8.60;99.90
20831;DHT22;10576;53.556;9.868;2024-02-16T05:48:17;10.70;99.90
20831;DHT22;10576;53.556;9.868;2024-02-16T05:50:42;10.70;99.90
20831;DHT22;10576;53.556;9.868;2024-02-16T05:53:08;10.70;99.90
20831;DHT22;10576;53.556;9.868;2024-02-16T05:55:36;10.70;99.90
20831;DHT22;10576;53.556;9.868;2024-02-16T05:58:01;10.70;99.90
20831;DHT22;10576;53.556;9.868;2024-02-16T06:00:27;10.70;99.90
20831;DHT22;10576;53.556;9.868;2024-02-16T06:02:52;10.70;99.90
20831;DHT22;10576;53.556;9.868;2024-02-16T06:05:18;10.70;99.90
20831;DHT22;10576;53.556;9.868;2024-02-16T06:07:45;10.70;99.90
20831;DHT22;10576;53.556;9.868;2024-02-16T06:10:11;10.70;99.90
20831;DHT22;10576;53.556;9.868;2024-02-16T06:12:37;10.60;99.90
20831;DHT22;10576;53.556;9.868;2024-02-16T06:15:04;10.60;99.90
20831;DHT22;10576;53.556;9.868;2024-02-16T06:17:29;10.60;99.90
20831;DHT22;10576;53.556;9.868;2024-02-16T06:19:55;10.60;99.90
20831;DHT22;10576;53.556;9.868;2024-02-16T06:22:20;10.50;99.90
20831;DHT22;10576;53.556;9.868;2024-02-16T06:24:46;10.50;99.90
20831;DHT22;10576;53.556;9.868;2024-02-16T06:27:11;10.50;99.90
20831;DHT22;10576;53.556;9.868;2024-02-16T06:29:37;10.40;99.90
20831;DHT22;10576;53.556;9.868;2024-02-16T06:32:02;10.40;99.90
20831;DHT22;10576;53.556;9.868;2024-02-16T06:34:29;10.50;99.90
20831;DHT22;10576;53.556;9.868;2024-02-16T06:36:54;10.40;99.90
20831;DHT22;10576;53.556;9.868;2024-02-16T06:39:20;10.40;99.90
20831;DHT22;10576;53.556;9.868;2024-02-16T06:41:46;10.40;99.90
20831;DHT22;10576;53.556;9.868;2024-02-16T06:44:14;10.40;99.90
20831;DHT22;10576;53.556;9.868;2024-02-16T06:46:40;10.30;99.90
20831;DHT22;10576;53.556;9.868;2024-02-16T06:49:06;10.30;99.90
20831;DHT22;10576;53.556;9.868;2024-02-16T06:51:32;10.30;99.90
20831;DHT22;10576;53.556;9.868;2024-02-16T06:53:58;10.20;99.90
20831;DHT22;10576;53.556;9.868;2024-02-16T06:56:23;10.20;99.90
20831;DHT22;10576;53.556;9.868;2024-02-16T06:58:49;10.20;99.90
20831;DHT22;10576;53.556;9.868;2024-02-16T07:01:15;10.20;99.90
20831;DHT22;10576;53.556;9.868;2024-02-16T07:03:40;10.20;99.90
20831;DHT22;10576;53.556;9.868;2024-02-16T07:06:06;10.20;99.90
20831;DHT22;10576;53.556;9.868;2024-02-16T07:08:38;10.20;99.90
20831;DHT22;10576;53.556;9.868;2024-02-16T07:11:04;10.20;99.90
20831;DHT22;10576;53.556;9.868;2024-02-16T07:13:30;10.20;99.90
20831;DHT22;10576;53.556;9.868;2024-02-16T07:15:56;10.20;99.90
20831;DHT22;10576;53.556;9.868;2024-02-16T07:18:22;10.20;99.90
20831;DHT22;10576;53.556;9.868;2024-02-16T07:20:48;10.20;99.90
20831;DHT22;10576;53.556;9.868;2024-02-16T07:23:13;10.30;99.90
20831;DHT22;10576;53.556;9.868;2024-02-16T07:25:40;10.30;99.90
20831;DHT22;10576;53.556;9.868;2024-02-16T07:28:07;10.40;99.90
20831;DHT22;10576;53.556;9.868;2024-02-16T07:30:33;10.40;99.90
20831;DHT22;10576;53.556;9.868;2024-02-16T07:32:59;10.50;99.90
20831;DHT22;10576;53.556;9.868;2024-02-16T07:35:24;10.50;99.90
20831;DHT22;10576;53.556;9.868;2024-02-16T07:37:50;10.50;99.90
20831;DHT22;10576;53.556;9.868;2024-02-16T07:40:19;10.60;99.90
20831;DHT22;10576;53.556;9.868;2024-02-16T07:42:45;10.60;99.90
20831;DHT22;10576;53.556;9.868;2024-02-16T07:45:11;10.60;99.90
20831;DHT22;10576;53.556;9.868;2024-02-16T07:47:38;10.70;99.90
20831;DHT22;10576;53.556;9.868;2024-02-16T07:50:03;10.70;99.90
20831;DHT22;10576;53.556;9.868;2024-02-16T07:52:31;10.70;99.90
20831;DHT22;10576;53.556;9.868;2024-02-16T07:54:57;10.80;99.90
20831;DHT22;10576;53.556;9.868;2024-02-16T07:57:23;10.90;99.90
20831;DHT22;10576;53.556;9.868;2024-02-16T07:59:49;10.90;99.90
20831;DHT22;10576;53.556;9.868;2024-02-16T08:02:14;11.00;99.90
20831;DHT22;10576;53.556;9.868;2024-02-16T08:04:50;11.00;99.90
20831;DHT22;10576;53.556;9.868;2024-02-16T08:07:16;11.20;99.90
20831;DHT22;10576;53.556;9.868;2024-02-16T08:09:47;11.30;99.90
20831;DHT22;10576;53.556;9.868;2024-02-16T08:12:13;11.50;99.90
20831;DHT22;10576;53.556;9.868;2024-02-16T08:14:39;11.50;99.90
20831;DHT22;10576;53.556;9.868;2024-02-16T08:17:08;11.60;99.90
20831;DHT22;10576;53.556;9.868;2024-02-16T08:19:34;11.60;99.90
20831;DHT22;10576;53.556;9.868;2024-02-16T08:22:00;11.60;99.90
20831;DHT22;10576;53.556;9.868;2024-02-16T08:24:26;11.70;99.90
20831;DHT22;10576;53.556;9.868;2024-02-16T08:26:52;11.60;99.90
20831;DHT22;10576;53.556;9.868;2024-02-16T08:29:17;11.70;99.90
20831;DHT22;10576;53.556;9.868;2024-02-16T08:31:43;11.70;99.90
20831;DHT22;10576;53.556;9.868;2024-02-16T08:34:09;11.70;99.90
20831;DHT22;10576;53.556;9.868;2024-02-16T08:36:36;11.70;99.90
20831;DHT22;10576;53.556;9.868;2024-02-16T08:39:01;11.70;99.90
20831;DHT22;10576;53.556;9.868;2024-02-16T08:41:27;11.80;99.90
20831;DHT22;10576;53.556;9.868;2024-02-16T08:43:52;11.80;99.90
20831;DHT22;10576;53.556;9.868;2024-02-16T08:46:18;11.80;99.90
20831;DHT22;10576;53.556;9.868;2024-02-16T08:48:47;11.90;99.90
20831;DHT22;10576;53.556;9.868;2024-02-16T08:51:12;11.90;99.90
20831;DHT22;10576;53.556;9.868;2024-02-16T08:53:39;12.00;99.90
20831;DHT22;10576;53.556;9.868;2024-02-16T08:56:08;12.00;99.90
20831;DHT22;10576;53.556;9.868;2024-02-16T08:58:34;11.40;99.90
20831;DHT22;10576;53.556;9.868;2024-02-16T09:00:59;12.00;99.90
20831;DHT22;10576;53.556;9.868;2024-02-16T09:03:25;12.10;99.90
20831;DHT22;10576;53.556;9.868;2024-02-16T09:05:50;12.20;99.90
20831;DHT22;10576;53.556;9.868;2024-02-16T09:08:16;12.20;99.90
20831;DHT22;10576;53.556;9.868;2024-02-16T09:10:41;12.20;99.90
20831;DHT22;10576;53.556;9.868;2024-02-16T09:13:07;12.20;99.90
20831;DHT22;10576;53.556;9.868;2024-02-16T09:15:34;12.30;99.90
20831;DHT22;10576;53.556;9.868;2024-02-16T09:18:00;12.30;99.90
20831;DHT22;10576;53.556;9.868;2024-02-16T09:20:25;12.30;99.90
20831;DHT22;10576;53.556;9.868;2024-02-16T09:22:51;12.30;99.90
20831;DHT22;10576;53.556;9.868;2024-02-16T09:25:16;12.30;99.90
20831;DHT22;10576;53.556;9.868;2024-02-16T09:27:42;12.40;99.90
20831;DHT22;10576;53.556;9.868;2024-02-16T09:30:10;12.40;99.90
20831;DHT22;10576;53.556;9.868;2024-02-16T09:32:38;12.50;99.90
20831;DHT22;10576;53.556;9.868;2024-02-16T09:35:04;12.50;99.90
20831;DHT22;10576;53.556;9.868;2024-02-16T09:37:30;12.60;99.90
20831;DHT22;10576;53.556;9.868;2024-02-16T09:39:55;15.00;99.90
20831;DHT22;10576;53.556;9.868;2024-02-16T09:42:22;12.60;99.90
20831;DHT22;10576;53.556;9.868;2024-02-16T09:44:48;12.70;99.90
20831;DHT22;10576;53.556;9.868;2024-02-16T09:47:14;12.70;99.90
20831;DHT22;10576;53.556;9.868;2024-02-16T09:49:40;12.70;99.90
20831;DHT22;10576;53.556;9.868;2024-02-16T09:52:05;12.80;99.90
20831;DHT22;10576;53.556;9.868;2024-02-16T09:54:33;12.80;99.90
20831;DHT22;10576;53.556;9.868;2024-02-16T09:57:03;12.80;99.90
20831;DHT22;10576;53.556;9.868;2024-02-16T09:59:29;12.90;99.90
20831;DHT22;10576;53.556;9.868;2024-02-16T10:02:02;13.00;99.90
20831;DHT22;10576;53.556;9.868;2024-02-16T10:04:29;13.00;99.90
20831;DHT22;10576;53.556;9.868;2024-02-16T10:06:55;13.10;99.90
20831;DHT22;10576;53.556;9.868;2024-02-16T10:09:29;13.10;99.90
20831;DHT22;10576;53.556;9.868;2024-02-16T10:11:55;13.20;99.90
20831;DHT22;10576;53.556;9.868;2024-02-16T10:14:20;13.40;99.90
20831;DHT22;10576;53.556;9.868;2024-02-16T10:16:47;13.40;99.90
20831;DHT22;10576;53.556;9.868;2024-02-16T10:19:13;13.50;99.90
20831;DHT22;10576;53.556;9.868;2024-02-16T10:21:39;13.60;99.90
20831;DHT22;10576;53.556;9.868;2024-02-16T10:24:06;13.60;99.90
20831;DHT22;10576;53.556;9.868;2024-02-16T10:26:36;13.60;99.90
20831;DHT22;10576;53.556;9.868;2024-02-16T10:29:08;13.70;99.90
20831;DHT22;10576;53.556;9.868;2024-02-16T10:31:33;13.90;99.90
20831;DHT22;10576;53.556;9.868;2024-02-16T10:34:00;13.90;99.90
20831;DHT22;10576;53.556;9.868;2024-02-16T10:36:27;13.90;99.90
20831;DHT22;10576;53.556;9.868;2024-02-16T10:38:55;14.00;99.90
20831;DHT22;10576;53.556;9.868;2024-02-16T10:41:27;13.90;99.90
20831;DHT22;10576;53.556;9.868;2024-02-16T10:43:54;13.90;99.90
20831;DHT22;10576;53.556;9.868;2024-02-16T10:46:20;13.90;99.90
20831;DHT22;10576;53.556;9.868;2024-02-16T10:48:46;13.90;99.90
20831;DHT22;10576;53.556;9.868;2024-02-16T10:51:11;14.00;99.90
20831;DHT22;10576;53.556;9.868;2024-02-16T10:53:38;14.00;99.90
20831;DHT22;10576;53.556;9.868;2024-02-16T10:56:06;14.00;99.90
20831;DHT22;10576;53.556;9.868;2024-02-16T10:58:32;14.10;99.90
20831;DHT22;10576;53.556;9.868;2024-02-16T11:01:07;14.10;99.90
20831;DHT22;10576;53.556;9.868;2024-02-16T11:03:32;14.20;99.90
20831;DHT22;10576;53.556;9.868;2024-02-16T11:05:58;14.20;99.90
20831;DHT22;10576;53.556;9.868;2024-02-16T11:08:24;14.30;99.90
20831;DHT22;10576;53.556;9.868;2024-02-16T11:10:56;14.30;99.90
20831;DHT22;10576;53.556;9.868;2024-02-16T11:13:22;14.30;99.90
20831;DHT22;10576;53.556;9.868;2024-02-16T11:16:11;14.40;99.90
20831;DHT22;10576;53.556;9.868;2024-02-16T11:18:38;14.30;99.90
20831;DHT22;10576;53.556;9.868;2024-02-16T11:21:12;14.50;99.90
20831;DHT22;10576;53.556;9.868;2024-02-16T11:23:37;14.50;99.90
20831;DHT22;10576;53.556;9.868;2024-02-16T11:26:08;14.60;99.90
20831;DHT22;10576;53.556;9.868;2024-02-16T11:28:36;14.50;99.90
20831;DHT22;10576;53.556;9.868;2024-02-16T11:31:02;14.60;99.90
20831;DHT22;10576;53.556;9.868;2024-02-16T11:33:28;14.60;99.90
20831;DHT22;10576;53.556;9.868;2024-02-16T11:35:55;14.50;99.90
20831;DHT22;10576;53.556;9.868;2024-02-16T11:38:20;14.50;99.90
20831;DHT22;10576;53.556;9.868;2024-02-16T11:43:27;14.50;99.90
20831;DHT22;10576;53.556;9.868;2024-02-16T11:45:52;14.50;99.90
20831;DHT22;10576;53.556;9.868;2024-02-16T11:48:21;14.50;99.90
20831;DHT22;10576;53.556;9.868;2024-02-16T11:50:59;14.60;99.90
20831;DHT22;10576;53.556;9.868;2024-02-16T11:53:24;14.60;99.90
20831;DHT22;10576;53.556;9.868;2024-02-16T11:55:50;14.70;99.90
20831;DHT22;10576;53.556;9.868;2024-02-16T11:58:16;14.80;99.90
20831;DHT22;10576;53.556;9.868;2024-02-16T12:00:43;14.90;99.90
20831;DHT22;10576;53.556;9.868;2024-02-16T12:03:08;15.00;99.90
20831;DHT22;10576;53.556;9.868;2024-02-16T12:05:33;15.00;99.90
20831;DHT22;10576;53.556;9.868;2024-02-16T12:07:59;15.10;99.90
20831;DHT22;10576;53.556;9.868;2024-02-16T12:10:25;15.00;99.90
20831;DHT22;10576;53.556;9.868;2024-02-16T12:12:51;15.00;99.90
20831;DHT22;10576;53.556;9.868;2024-02-16T12:15:17;15.00;99.90
20831;DHT22;10576;53.556;9.868;2024-02-16T12:17:44;15.10;99.90
20831;DHT22;10576;53.556;9.868;2024-02-16T12:20:13;15.10;99.90
20831;DHT22;10576;53.556;9.868;2024-02-16T12:22:39;15.10;99.90
20831;DHT22;10576;53.556;9.868;2024-02-16T12:25:04;15.10;99.90
20831;DHT22;10576;53.556;9.868;2024-02-16T12:27:30;15.20;99.90
20831;DHT22;10576;53.556;9.868;2024-02-16T12:29:56;15.20;99.90
20831;DHT22;10576;53.556;9.868;2024-02-16T12:32:21;15.30;99.90
20831;DHT22;10576;53.556;9.868;2024-02-16T12:34:47;15.20;99.90
20831;DHT22;10576;53.556;9.868;2024-02-16T12:37:12;15.30;99.90
20831;DHT22;10576;53.556;9.868;2024-02-16T12:39:38;15.20;99.90
20831;DHT22;10576;53.556;9.868;2024-02-16T12:42:03;15.10;99.90
20831;DHT22;10576;53.556;9.868;2024-02-16T12:44:29;15.10;99.90
20831;DHT22;10576;53.556;9.868;2024-02-16T12:46:56;15.10;99.90
20831;DHT22;10576;53.556;9.868;2024-02-16T12:49:21;15.10;99.90
20831;DHT22;10576;53.556;9.868;2024-02-16T12:51:50;15.00;99.90
20831;DHT22;10576;53.556;9.868;2024-02-16T12:54:16;15.00;99.90
20831;DHT22;10576;53.556;9.868;2024-02-16T12:56:45;15.00;99.90
20831;DHT22;10576;53.556;9.868;2024-02-16T12:59:10;15.00;99.90
20831;DHT22;10576;53.556;9.868;2024-02-16T13:01:36;15.00;99.90
20831;DHT22;10576;53.556;9.868;2024-02-16T13:04:02;15.00;99.90
20831;DHT22;10576;53.556;9.868;2024-02-16T13:06:28;15.00;99.90
20831;DHT22;10576;53.556;9.868;2024-02-16T13:08:53;14.90;99.90
20831;DHT22;10576;53.556;9.868;2024-02-16T13:11:19;14.90;99.90
20831;DHT22;10576;53.556;9.868;2024-02-16T13:13:44;14.90;99.90
20831;DHT22;10576;53.556;9.868;2024-02-16T13:16:10;14.90;99.90
20831;DHT22;10576;53.556;9.868;2024-02-16T13:18:35;14.90;99.90
20831;DHT22;10576;53.556;9.868;2024-02-16T13:21:01;14.90;99.90
20831;DHT22;10576;53.556;9.868;2024-02-16T13:23:26;14.90;99.90
20831;DHT22;10576;53.556;9.868;2024-02-16T13:25:54;14.90;99.90
20831;DHT22;10576;53.556;9.868;2024-02-16T13:28:20;14.90;99.90
20831;DHT22;10576;53.556;9.868;2024-02-16T13:30:45;14.90;99.90
20831;DHT22;10576;53.556;9.868;2024-02-16T13:33:11;14.90;99.90
20831;DHT22;10576;53.556;9.868;2024-02-16T13:35:36;14.90;99.90
20831;DHT22;10576;53.556;9.868;2024-02-16T13:38:03;14.80;99.90
20831;DHT22;10576;53.556;9.868;2024-02-16T13:40:28;14.80;99.90
20831;DHT22;10576;53.556;9.868;2024-02-16T13:42:54;14.70;99.90
20831;DHT22;10576;53.556;9.868;2024-02-16T13:45:27;14.70;99.90
20831;DHT22;10576;53.556;9.868;2024-02-16T13:47:53;14.70;99.90
20831;DHT22;10576;53.556;9.868;2024-02-16T13:50:18;14.70;99.90
20831;DHT22;10576;53.556;9.868;2024-02-16T13:52:44;14.70;99.90
20831;DHT22;10576;53.556;9.868;2024-02-16T13:55:10;14.70;99.90
20831;DHT22;10576;53.556;9.868;2024-02-16T13:57:35;14.60;99.90
20831;DHT22;10576;53.556;9.868;2024-02-16T14:00:01;14.70;99.90
20831;DHT22;10576;53.556;9.868;2024-02-16T14:02:26;14.60;99.90
20831;DHT22;10576;53.556;9.868;2024-02-16T14:04:52;14.70;99.90
20831;DHT22;10576;53.556;9.868;2024-02-16T14:07:18;14.70;99.90
20831;DHT22;10576;53.556;9.868;2024-02-16T14:09:43;14.80;99.90
20831;DHT22;10576;53.556;9.868;2024-02-16T14:12:09;14.70;99.90
20831;DHT22;10576;53.556;9.868;2024-02-16T14:14:34;14.70;99.90
20831;DHT22;10576;53.556;9.868;2024-02-16T14:17:00;14.70;99.90
20831;DHT22;10576;53.556;9.868;2024-02-16T14:19:25;14.70;99.90
20831;DHT22;10576;53.556;9.868;2024-02-16T14:21:51;15.10;99.90
20831;DHT22;10576;53.556;9.868;2024-02-16T14:24:16;15.40;99.90
20831;DHT22;10576;53.556;9.868;2024-02-16T14:26:43;15.90;99.90
20831;DHT22;10576;53.556;9.868;2024-02-16T14:29:08;16.00;99.90
20831;DHT22;10576;53.556;9.868;2024-02-16T14:31:34;16.00;99.90
20831;DHT22;10576;53.556;9.868;2024-02-16T14:34:00;16.00;99.90
20831;DHT22;10576;53.556;9.868;2024-02-16T14:36:25;15.60;99.90
20831;DHT22;10576;53.556;9.868;2024-02-16T14:38:51;15.50;99.90
20831;DHT22;10576;53.556;9.868;2024-02-16T14:41:16;15.80;99.90
20831;DHT22;10576;53.556;9.868;2024-02-16T14:43:42;15.90;99.90
20831;DHT22;10576;53.556;9.868;2024-02-16T14:46:08;15.30;99.90
20831;DHT22;10576;53.556;9.868;2024-02-16T14:48:34;14.90;99.90
20831;DHT22;10576;53.556;9.868;2024-02-16T14:50:59;14.50;99.90
20831;DHT22;10576;53.556;9.868;2024-02-16T14:53:25;14.40;99.90
20831;DHT22;10576;53.556;9.868;2024-02-16T14:55:51;14.20;99.90
20831;DHT22;10576;53.556;9.868;2024-02-16T14:58:16;14.10;99.90
20831;DHT22;10576;53.556;9.868;2024-02-16T15:00:42;14.00;99.90
20831;DHT22;10576;53.556;9.868;2024-02-16T15:03:09;14.00;99.90
20831;DHT22;10576;53.556;9.868;2024-02-16T15:05:34;13.90;99.90
20831;DHT22;10576;53.556;9.868;2024-02-16T15:08:00;13.80;99.90
20831;DHT22;10576;53.556;9.868;2024-02-16T15:10:27;13.80;99.90
20831;DHT22;10576;53.556;9.868;2024-02-16T15:12:52;13.70;99.90
20831;DHT22;10576;53.556;9.868;2024-02-16T15:15:18;13.70;99.90
20831;DHT22;10576;53.556;9.868;2024-02-16T15:17:43;13.60;99.90
20831;DHT22;10576;53.556;9.868;2024-02-16T15:20:09;13.50;99.90
20831;DHT22;10576;53.556;9.868;2024-02-16T15:22:35;13.50;99.90
20831;DHT22;10576;53.556;9.868;2024-02-16T15:25:01;13.50;99.90